Česky Dansk Deutsch English Español Suomi Français Magyar Italiano Nederlands norsk Polski Português svenska Türkçe

 

Het Weer

Nevers (Frankrijk)

12:30, 23 augustus 2016 (GMT)

NWNNE
WE
SWSSE
Home            
Nevers Avord Bourges Auxerre Saint-Yan Vichy Montlucon / Gueret Chateauroux Romorantin Clermont-Ferrand Chatillon-Sur-Seine Orleans Macon Dijon Troyes Chateaudun Dole Tavaux Melun Tours St-Etienne Boutheon Limoges Paris-Orly Lyon / Bron

Om een weerknop op uw website of weblog te plaatsen, copieer onderstaande code en plak die in uw pagina. In het eerste vakje staat HTML-code, in het tweede vakje UBB-code.


Add to Google

Details

Wind speed:3 bf, 8 kn, 4.1 m/s, 9.2 miles/h, 14.8 km/h
Wind direction:E, 080° - SE, 140°
Visibility:Greater than 10000 m, 10 km, 32800 ft, 6.2 miles
Clouds:CAVOC
Temperature:30°C, 86°F
Gefühlte Temperatur:29°C, 85°F
Dew-point:14°C, 57°F
Atmospheric pressure:1023 hPa, 767.3 mmHg, 30.21 inHg, 1.010 atm
Relative humidity:37.7 %
METAR:LFQG 231230Z AUTO 12008KT 080V140 CAVOK 30/14 Q1023

Snelkoppelingen

Actuele weersinformatie van de hele wereld. Voeg locaties toe met het plus (+) symbool. Deze snelkoppelingen kunnen worden toegevoegd aan Google.

Lid van de Technetium groep

website free tracking
StatCounter NetStat W3C Validator

29-06-2022 12:57:31
astro.technetium.be money.technetium.be phote.technetium.be tafeltennistafel.technetium.be www.ligfiets.net